sensor_id;sensor_type;location;lat;lon;timestamp;pressure;altitude;pressure_sealevel;temperature;humidity
63500;BME280;49654;51.142;14.924;2022-10-03T00:00:11;99351.38;;;11.99;82.75
63500;BME280;49654;51.142;14.924;2022-10-03T00:05:43;99347.38;;;11.96;82.97
63500;BME280;49654;51.142;14.924;2022-10-03T00:08:19;99341.19;;;11.83;83.34
63500;BME280;49654;51.142;14.924;2022-10-03T00:10:58;99337.88;;;12.03;82.71
63500;BME280;49654;51.142;14.924;2022-10-03T00:13:36;99340.19;;;11.98;82.57
63500;BME280;49654;51.142;14.924;2022-10-03T00:16:12;99336.69;;;12.06;81.84
63500;BME280;49654;51.142;14.924;2022-10-03T00:18:50;99361.28;;;11.89;82.83
63500;BME280;49654;51.142;14.924;2022-10-03T00:21:31;99348.91;;;11.91;83.17
63500;BME280;49654;51.142;14.924;2022-10-03T00:24:12;99338.84;;;11.88;82.76
63500;BME280;49654;51.142;14.924;2022-10-03T00:26:48;99362.00;;;12.12;82.25
63500;BME280;49654;51.142;14.924;2022-10-03T00:29:43;99380.66;;;12.16;82.11
63500;BME280;49654;51.142;14.924;2022-10-03T00:32:25;99378.94;;;11.93;83.08
63500;BME280;49654;51.142;14.924;2022-10-03T00:35:09;99371.22;;;11.85;82.70
63500;BME280;49654;51.142;14.924;2022-10-03T00:37:45;99376.81;;;11.97;82.44
63500;BME280;49654;51.142;14.924;2022-10-03T00:40:38;99385.97;;;12.08;81.83
63500;BME280;49654;51.142;14.924;2022-10-03T00:43:46;99375.56;;;12.08;81.38
63500;BME280;49654;51.142;14.924;2022-10-03T00:46:39;99384.19;;;12.08;81.41
63500;BME280;49654;51.142;14.924;2022-10-03T00:49:36;99388.13;;;12.04;81.95
63500;BME280;49654;51.142;14.924;2022-10-03T00:52:16;99385.16;;;12.22;80.94
63500;BME280;49654;51.142;14.924;2022-10-03T00:54:59;99388.06;;;12.12;81.14
63500;BME280;49654;51.142;14.924;2022-10-03T00:57:49;99380.31;;;12.04;81.14
63500;BME280;49654;51.142;14.924;2022-10-03T01:00:22;99385.44;;;12.12;80.75
63500;BME280;49654;51.142;14.924;2022-10-03T01:03:22;99384.97;;;12.23;80.22
63500;BME280;49654;51.142;14.924;2022-10-03T01:06:00;99370.88;;;12.03;80.43
63500;BME280;49654;51.142;14.924;2022-10-03T01:08:41;99383.47;;;12.14;81.19
63500;BME280;49654;51.142;14.924;2022-10-03T01:11:17;99379.50;;;12.03;80.88
63500;BME280;49654;51.142;14.924;2022-10-03T01:13:58;99392.25;;;12.13;80.82
63500;BME280;49654;51.142;14.924;2022-10-03T01:16:33;99384.44;;;12.13;80.72
63500;BME280;49654;51.142;14.924;2022-10-03T01:19:26;99400.94;;;12.06;80.94
63500;BME280;49654;51.142;14.924;2022-10-03T01:22:07;99395.84;;;12.12;80.37
63500;BME280;49654;51.142;14.924;2022-10-03T01:24:51;99398.53;;;12.19;80.75
63500;BME280;49654;51.142;14.924;2022-10-03T01:27:28;99391.34;;;12.06;80.69
63500;BME280;49654;51.142;14.924;2022-10-03T01:30:00;99391.69;;;12.03;80.71
63500;BME280;49654;51.142;14.924;2022-10-03T01:32:51;99402.56;;;12.07;80.28
63500;BME280;49654;51.142;14.924;2022-10-03T01:35:27;99399.06;;;12.14;80.06
63500;BME280;49654;51.142;14.924;2022-10-03T01:38:03;99394.13;;;12.19;80.04
63500;BME280;49654;51.142;14.924;2022-10-03T01:40:36;99401.31;;;12.17;79.89
63500;BME280;49654;51.142;14.924;2022-10-03T01:43:14;99400.34;;;12.18;80.33
63500;BME280;49654;51.142;14.924;2022-10-03T01:45:54;99396.84;;;12.26;79.88
63500;BME280;49654;51.142;14.924;2022-10-03T01:48:31;99394.94;;;12.20;79.58
63500;BME280;49654;51.142;14.924;2022-10-03T01:51:07;99401.31;;;12.17;79.43
63500;BME280;49654;51.142;14.924;2022-10-03T01:53:47;99394.03;;;11.98;80.58
63500;BME280;49654;51.142;14.924;2022-10-03T01:56:26;99403.56;;;12.06;80.36
63500;BME280;49654;51.142;14.924;2022-10-03T01:59:01;99396.81;;;12.11;80.33
63500;BME280;49654;51.142;14.924;2022-10-03T02:01:38;99402.22;;;12.24;79.57
63500;BME280;49654;51.142;14.924;2022-10-03T02:04:14;99403.41;;;12.22;79.87
63500;BME280;49654;51.142;14.924;2022-10-03T02:06:50;99403.38;;;12.07;80.19
63500;BME280;49654;51.142;14.924;2022-10-03T02:09:27;99402.13;;;12.18;80.44
63500;BME280;49654;51.142;14.924;2022-10-03T02:12:08;99404.19;;;12.22;80.51
63500;BME280;49654;51.142;14.924;2022-10-03T02:14:50;99394.69;;;12.30;79.39
63500;BME280;49654;51.142;14.924;2022-10-03T02:17:25;99409.31;;;12.16;79.68
63500;BME280;49654;51.142;14.924;2022-10-03T02:20:00;99409.22;;;12.09;79.23
63500;BME280;49654;51.142;14.924;2022-10-03T02:22:33;99414.78;;;12.06;79.52
63500;BME280;49654;51.142;14.924;2022-10-03T02:25:10;99413.50;;;12.02;79.66
63500;BME280;49654;51.142;14.924;2022-10-03T02:28:04;99411.75;;;12.17;79.26
63500;BME280;49654;51.142;14.924;2022-10-03T02:30:47;99419.00;;;12.07;78.87
63500;BME280;49654;51.142;14.924;2022-10-03T02:33:44;99414.69;;;11.99;79.62
63500;BME280;49654;51.142;14.924;2022-10-03T02:37:05;99416.13;;;12.02;79.71
63500;BME280;49654;51.142;14.924;2022-10-03T02:39:48;99420.25;;;12.11;79.56
63500;BME280;49654;51.142;14.924;2022-10-03T02:42:36;99419.44;;;12.11;79.57
63500;BME280;49654;51.142;14.924;2022-10-03T02:48:39;99432.19;;;12.20;79.33
63500;BME280;49654;51.142;14.924;2022-10-03T02:51:36;99422.50;;;12.14;79.35
63500;BME280;49654;51.142;14.924;2022-10-03T02:54:48;99421.44;;;12.23;79.46
63500;BME280;49654;51.142;14.924;2022-10-03T02:58:00;99431.47;;;12.12;79.51
63500;BME280;49654;51.142;14.924;2022-10-03T03:00:40;99428.44;;;12.08;79.10
63500;BME280;49654;51.142;14.924;2022-10-03T03:03:43;99431.53;;;11.89;79.84
63500;BME280;49654;51.142;14.924;2022-10-03T03:06:46;99437.84;;;12.09;79.18
63500;BME280;49654;51.142;14.924;2022-10-03T03:09:45;99435.31;;;12.01;79.66
63500;BME280;49654;51.142;14.924;2022-10-03T03:12:30;99426.09;;;12.13;79.01
63500;BME280;49654;51.142;14.924;2022-10-03T03:18:27;99434.59;;;12.07;79.63
63500;BME280;49654;51.142;14.924;2022-10-03T03:21:12;99438.84;;;12.08;79.72
63500;BME280;49654;51.142;14.924;2022-10-03T03:23:57;99437.13;;;12.00;80.10
63500;BME280;49654;51.142;14.924;2022-10-03T03:26:50;99446.00;;;12.06;80.29
63500;BME280;49654;51.142;14.924;2022-10-03T03:29:31;99434.19;;;12.03;79.89
63500;BME280;49654;51.142;14.924;2022-10-03T03:32:04;99438.53;;;12.03;79.82
63500;BME280;49654;51.142;14.924;2022-10-03T03:34:41;99441.69;;;11.98;80.23
63500;BME280;49654;51.142;14.924;2022-10-03T03:37:19;99440.53;;;12.16;79.05
63500;BME280;49654;51.142;14.924;2022-10-03T03:40:03;99447.66;;;12.22;79.10
63500;BME280;49654;51.142;14.924;2022-10-03T03:42:56;99454.56;;;12.15;79.14
63500;BME280;49654;51.142;14.924;2022-10-03T03:45:38;99452.28;;;11.97;79.42
63500;BME280;49654;51.142;14.924;2022-10-03T03:48:17;99454.69;;;11.98;79.73
63500;BME280;49654;51.142;14.924;2022-10-03T03:50:56;99464.22;;;12.06;79.45
63500;BME280;49654;51.142;14.924;2022-10-03T03:53:53;99459.81;;;11.92;80.26
63500;BME280;49654;51.142;14.924;2022-10-03T03:56:44;99459.06;;;11.83;80.79
63500;BME280;49654;51.142;14.924;2022-10-03T03:59:26;99455.59;;;11.91;80.73
63500;BME280;49654;51.142;14.924;2022-10-03T04:02:16;99452.34;;;11.89;80.43
63500;BME280;49654;51.142;14.924;2022-10-03T04:04:56;99455.41;;;11.92;79.95
63500;BME280;49654;51.142;14.924;2022-10-03T04:07:35;99458.19;;;11.91;80.04
63500;BME280;49654;51.142;14.924;2022-10-03T04:10:16;99461.06;;;11.96;79.93
63500;BME280;49654;51.142;14.924;2022-10-03T04:13:01;99460.53;;;12.00;79.49
63500;BME280;49654;51.142;14.924;2022-10-03T04:15:46;99463.03;;;11.94;79.23
63500;BME280;49654;51.142;14.924;2022-10-03T04:18:28;99461.06;;;11.96;79.14
63500;BME280;49654;51.142;14.924;2022-10-03T04:21:31;99438.34;;;11.90;78.69
63500;BME280;49654;51.142;14.924;2022-10-03T04:24:26;99459.75;;;12.00;78.88
63500;BME280;49654;51.142;14.924;2022-10-03T04:27:21;99465.16;;;12.13;78.20
63500;BME280;49654;51.142;14.924;2022-10-03T04:30:00;99466.50;;;12.09;78.21
63500;BME280;49654;51.142;14.924;2022-10-03T04:32:45;99461.69;;;11.98;78.38
63500;BME280;49654;51.142;14.924;2022-10-03T04:35:32;99447.06;;;11.97;77.80
63500;BME280;49654;51.142;14.924;2022-10-03T04:38:10;99463.47;;;11.83;78.44
63500;BME280;49654;51.142;14.924;2022-10-03T04:40:46;99459.53;;;11.87;78.43
63500;BME280;49654;51.142;14.924;2022-10-03T04:43:23;99461.47;;;11.85;78.55
63500;BME280;49654;51.142;14.924;2022-10-03T04:46:09;99463.22;;;11.92;77.81
63500;BME280;49654;51.142;14.924;2022-10-03T04:48:43;99463.47;;;11.83;78.09
63500;BME280;49654;51.142;14.924;2022-10-03T04:51:17;99470.50;;;11.97;78.11
63500;BME280;49654;51.142;14.924;2022-10-03T04:53:54;99469.50;;;11.98;77.93
63500;BME280;49654;51.142;14.924;2022-10-03T04:56:42;99481.53;;;11.99;78.13
63500;BME280;49654;51.142;14.924;2022-10-03T04:59:33;99470.09;;;12.08;77.53
63500;BME280;49654;51.142;14.924;2022-10-03T05:02:08;99483.25;;;12.07;77.47
63500;BME280;49654;51.142;14.924;2022-10-03T05:04:52;99473.31;;;12.10;77.10
63500;BME280;49654;51.142;14.924;2022-10-03T05:07:24;99475.84;;;12.18;77.15
63500;BME280;49654;51.142;14.924;2022-10-03T05:09:59;99481.97;;;12.25;77.12
63500;BME280;49654;51.142;14.924;2022-10-03T05:12:33;99483.91;;;12.23;77.12
63500;BME280;49654;51.142;14.924;2022-10-03T05:15:17;99477.63;;;12.18;76.95
63500;BME280;49654;51.142;14.924;2022-10-03T05:17:54;99488.13;;;12.10;76.92
63500;BME280;49654;51.142;14.924;2022-10-03T05:20:37;99487.94;;;12.11;76.90
63500;BME280;49654;51.142;14.924;2022-10-03T05:23:18;99491.34;;;12.12;77.13
63500;BME280;49654;51.142;14.924;2022-10-03T05:25:55;99495.75;;;12.11;76.99
63500;BME280;49654;51.142;14.924;2022-10-03T05:28:35;99483.72;;;12.10;77.24
63500;BME280;49654;51.142;14.924;2022-10-03T05:31:16;99495.50;;;12.21;76.81
63500;BME280;49654;51.142;14.924;2022-10-03T05:33:53;99491.59;;;12.02;77.00
63500;BME280;49654;51.142;14.924;2022-10-03T05:36:30;99498.66;;;12.16;77.05
63500;BME280;49654;51.142;14.924;2022-10-03T05:39:36;99505.31;;;12.34;76.27
63500;BME280;49654;51.142;14.924;2022-10-03T05:42:26;99503.47;;;12.19;75.99
63500;BME280;49654;51.142;14.924;2022-10-03T05:45:02;99510.22;;;12.14;76.17
63500;BME280;49654;51.142;14.924;2022-10-03T05:47:40;99511.34;;;12.11;76.67
63500;BME280;49654;51.142;14.924;2022-10-03T05:50:40;99515.63;;;12.27;76.27
63500;BME280;49654;51.142;14.924;2022-10-03T05:53:23;99509.50;;;12.20;76.18
63500;BME280;49654;51.142;14.924;2022-10-03T05:56:04;99517.22;;;12.13;76.35
63500;BME280;49654;51.142;14.924;2022-10-03T05:58:42;99534.09;;;12.17;76.25
63500;BME280;49654;51.142;14.924;2022-10-03T06:01:44;99521.19;;;12.24;76.46
63500;BME280;49654;51.142;14.924;2022-10-03T06:04:39;99535.84;;;12.40;75.80
63500;BME280;49654;51.142;14.924;2022-10-03T06:07:18;99533.25;;;12.40;75.11
63500;BME280;49654;51.142;14.924;2022-10-03T06:10:25;99528.66;;;12.42;75.21
63500;BME280;49654;51.142;14.924;2022-10-03T06:13:09;99531.66;;;12.39;75.61
63500;BME280;49654;51.142;14.924;2022-10-03T06:15:46;99531.50;;;12.17;76.26
63500;BME280;49654;51.142;14.924;2022-10-03T06:18:57;99542.78;;;12.10;77.48
63500;BME280;49654;51.142;14.924;2022-10-03T06:22:15;99543.31;;;12.05;77.49
63500;BME280;49654;51.142;14.924;2022-10-03T06:25:15;99548.84;;;12.25;77.64
63500;BME280;49654;51.142;14.924;2022-10-03T06:28:14;99536.72;;;12.17;77.51
63500;BME280;49654;51.142;14.924;2022-10-03T06:31:00;99546.16;;;12.33;77.42
63500;BME280;49654;51.142;14.924;2022-10-03T06:34:02;99548.66;;;12.26;76.84
63500;BME280;49654;51.142;14.924;2022-10-03T06:37:19;99540.91;;;12.03;77.46
63500;BME280;49654;51.142;14.924;2022-10-03T06:40:25;99543.47;;;12.26;76.90
63500;BME280;49654;51.142;14.924;2022-10-03T06:43:27;99543.06;;;12.38;76.40
63500;BME280;49654;51.142;14.924;2022-10-03T06:46:39;99547.81;;;12.49;76.28
63500;BME280;49654;51.142;14.924;2022-10-03T06:49:31;99539.19;;;12.34;75.94
63500;BME280;49654;51.142;14.924;2022-10-03T06:52:42;99558.97;;;12.58;75.33
63500;BME280;49654;51.142;14.924;2022-10-03T06:55:33;99557.44;;;12.48;76.31
63500;BME280;49654;51.142;14.924;2022-10-03T06:58:35;99548.75;;;12.33;76.77
63500;BME280;49654;51.142;14.924;2022-10-03T07:01:29;99544.09;;;12.28;76.96
63500;BME280;49654;51.142;14.924;2022-10-03T07:04:21;99559.91;;;12.42;76.95
63500;BME280;49654;51.142;14.924;2022-10-03T07:07:11;99556.91;;;12.53;76.90
63500;BME280;49654;51.142;14.924;2022-10-03T07:10:00;99561.59;;;12.72;76.36
63500;BME280;49654;51.142;14.924;2022-10-03T07:12:48;99522.50;;;12.43;76.24
63500;BME280;49654;51.142;14.924;2022-10-03T07:15:45;99570.03;;;12.60;76.47
63500;BME280;49654;51.142;14.924;2022-10-03T07:25:01;99574.06;;;12.24;79.48
63500;BME280;49654;51.142;14.924;2022-10-03T07:27:48;99554.16;;;11.86;79.82
63500;BME280;49654;51.142;14.924;2022-10-03T07:30:19;99526.47;;;11.70;79.00
63500;BME280;49654;51.142;14.924;2022-10-03T07:33:19;99554.72;;;12.04;79.64
63500;BME280;49654;51.142;14.924;2022-10-03T07:36:15;99573.91;;;12.26;77.86
63500;BME280;49654;51.142;14.924;2022-10-03T07:42:10;99565.28;;;12.78;75.40
63500;BME280;49654;51.142;14.924;2022-10-03T07:45:00;99586.69;;;13.03;74.43
63500;BME280;49654;51.142;14.924;2022-10-03T07:48:01;99590.47;;;13.45;73.71
63500;BME280;49654;51.142;14.924;2022-10-03T07:50:56;99581.25;;;13.27;72.85
63500;BME280;49654;51.142;14.924;2022-10-03T07:53:59;99606.53;;;13.19;73.84
63500;BME280;49654;51.142;14.924;2022-10-03T07:57:03;99607.97;;;12.92;74.58
63500;BME280;49654;51.142;14.924;2022-10-03T08:06:10;99599.84;;;12.57;77.09
63500;BME280;49654;51.142;14.924;2022-10-03T08:09:03;99567.72;;;12.42;77.28
63500;BME280;49654;51.142;14.924;2022-10-03T08:14:42;99610.22;;;12.80;77.05
63500;BME280;49654;51.142;14.924;2022-10-03T08:17:34;99601.06;;;13.14;75.76
63500;BME280;49654;51.142;14.924;2022-10-03T08:20:30;99611.50;;;13.14;74.12
63500;BME280;49654;51.142;14.924;2022-10-03T08:23:14;99609.97;;;13.19;73.41
63500;BME280;49654;51.142;14.924;2022-10-03T08:25:57;99621.88;;;13.37;71.99
63500;BME280;49654;51.142;14.924;2022-10-03T08:28:45;99601.06;;;13.58;71.39
63500;BME280;49654;51.142;14.924;2022-10-03T08:31:43;99612.66;;;13.56;71.11
63500;BME280;49654;51.142;14.924;2022-10-03T08:34:27;99618.25;;;13.52;71.65
63500;BME280;49654;51.142;14.924;2022-10-03T08:37:16;99608.13;;;13.28;72.38
63500;BME280;49654;51.142;14.924;2022-10-03T08:40:02;99617.47;;;13.37;72.65
63500;BME280;49654;51.142;14.924;2022-10-03T08:43:05;99611.44;;;13.37;73.06
63500;BME280;49654;51.142;14.924;2022-10-03T08:46:01;99611.22;;;12.94;74.62
63500;BME280;49654;51.142;14.924;2022-10-03T08:49:10;99613.75;;;13.02;76.21
63500;BME280;49654;51.142;14.924;2022-10-03T08:52:13;99614.41;;;12.66;77.08
63500;BME280;49654;51.142;14.924;2022-10-03T08:54:52;99586.28;;;12.62;77.46
63500;BME280;49654;51.142;14.924;2022-10-03T08:57:36;99592.84;;;12.58;77.27
63500;BME280;49654;51.142;14.924;2022-10-03T09:00:18;99591.63;;;12.83;76.34
63500;BME280;49654;51.142;14.924;2022-10-03T09:03:30;99605.44;;;12.84;74.19
63500;BME280;49654;51.142;14.924;2022-10-03T09:06:26;99619.13;;;12.86;74.87
63500;BME280;49654;51.142;14.924;2022-10-03T09:09:09;99614.19;;;13.06;74.26
63500;BME280;49654;51.142;14.924;2022-10-03T09:15:04;99622.41;;;13.47;72.73
63500;BME280;49654;51.142;14.924;2022-10-03T09:18:02;99624.75;;;13.78;71.26
63500;BME280;49654;51.142;14.924;2022-10-03T09:27:05;99628.88;;;13.87;69.71
63500;BME280;49654;51.142;14.924;2022-10-03T09:30:02;99622.56;;;13.60;70.21
63500;BME280;49654;51.142;14.924;2022-10-03T09:35:49;99649.03;;;13.42;71.26
63500;BME280;49654;51.142;14.924;2022-10-03T09:38:58;99641.41;;;13.41;71.11
63500;BME280;49654;51.142;14.924;2022-10-03T09:44:48;99650.53;;;13.07;71.98
63500;BME280;49654;51.142;14.924;2022-10-03T09:48:00;99653.75;;;13.09;72.65
63500;BME280;49654;51.142;14.924;2022-10-03T09:50:57;99656.75;;;13.06;74.19
63500;BME280;49654;51.142;14.924;2022-10-03T09:54:05;99658.69;;;13.04;72.93
63500;BME280;49654;51.142;14.924;2022-10-03T09:57:12;99653.56;;;13.85;70.48
63500;BME280;49654;51.142;14.924;2022-10-03T10:00:00;99662.81;;;14.23;68.31
63500;BME280;49654;51.142;14.924;2022-10-03T10:03:00;99648.41;;;14.49;67.30
63500;BME280;49654;51.142;14.924;2022-10-03T10:08:55;99632.94;;;13.90;67.54
63500;BME280;49654;51.142;14.924;2022-10-03T10:11:40;99654.09;;;14.38;65.85
63500;BME280;49654;51.142;14.924;2022-10-03T10:14:39;99654.72;;;14.83;65.15
63500;BME280;49654;51.142;14.924;2022-10-03T10:17:40;99658.81;;;14.92;63.67
63500;BME280;49654;51.142;14.924;2022-10-03T10:23:32;99657.03;;;14.71;63.98
63500;BME280;49654;51.142;14.924;2022-10-03T10:29:37;99656.19;;;14.64;65.26
63500;BME280;49654;51.142;14.924;2022-10-03T10:35:40;99656.34;;;14.41;65.43
63500;BME280;49654;51.142;14.924;2022-10-03T10:38:34;99654.75;;;14.40;67.05
63500;BME280;49654;51.142;14.924;2022-10-03T10:41:32;99667.41;;;14.43;66.34
63500;BME280;49654;51.142;14.924;2022-10-03T10:44:32;99669.75;;;13.95;67.19
63500;BME280;49654;51.142;14.924;2022-10-03T10:47:11;99664.56;;;13.80;69.45
63500;BME280;49654;51.142;14.924;2022-10-03T10:49:57;99643.97;;;13.70;69.20
63500;BME280;49654;51.142;14.924;2022-10-03T10:52:46;99667.28;;;14.08;67.54
63500;BME280;49654;51.142;14.924;2022-10-03T10:56:17;99665.34;;;14.53;66.36
63500;BME280;49654;51.142;14.924;2022-10-03T11:02:43;99669.63;;;14.82;63.81
63500;BME280;49654;51.142;14.924;2022-10-03T11:05:47;99671.84;;;14.64;64.77
63500;BME280;49654;51.142;14.924;2022-10-03T11:18:29;99688.53;;;13.54;71.79
63500;BME280;49654;51.142;14.924;2022-10-03T11:21:23;99672.84;;;13.84;71.56
63500;BME280;49654;51.142;14.924;2022-10-03T11:24:21;99688.31;;;14.43;69.91
63500;BME280;49654;51.142;14.924;2022-10-03T11:27:17;99670.06;;;15.55;66.63
63500;BME280;49654;51.142;14.924;2022-10-03T11:30:25;99673.59;;;16.63;60.72
63500;BME280;49654;51.142;14.924;2022-10-03T11:36:57;99656.56;;;15.99;58.97
63500;BME280;49654;51.142;14.924;2022-10-03T11:39:37;99679.25;;;16.67;59.26
63500;BME280;49654;51.142;14.924;2022-10-03T11:42:17;99669.78;;;17.84;56.68
63500;BME280;49654;51.142;14.924;2022-10-03T11:44:53;99615.53;;;17.51;52.99
63500;BME280;49654;51.142;14.924;2022-10-03T11:47:32;99674.59;;;16.49;56.67
63500;BME280;49654;51.142;14.924;2022-10-03T11:53:15;99677.06;;;16.77;57.81
63500;BME280;49654;51.142;14.924;2022-10-03T11:55:48;99679.44;;;16.59;55.66
63500;BME280;49654;51.142;14.924;2022-10-03T11:58:29;99670.88;;;15.56;56.96
63500;BME280;49654;51.142;14.924;2022-10-03T12:01:14;99681.50;;;15.13;58.64
63500;BME280;49654;51.142;14.924;2022-10-03T12:03:50;99687.25;;;15.01;58.27
63500;BME280;49654;51.142;14.924;2022-10-03T12:06:32;99680.38;;;14.72;59.66
63500;BME280;49654;51.142;14.924;2022-10-03T12:09:26;99696.94;;;14.80;59.26
63500;BME280;49654;51.142;14.924;2022-10-03T12:11:59;99620.91;;;14.53;59.42
63500;BME280;49654;51.142;14.924;2022-10-03T12:14:36;99677.81;;;15.70;57.05
63500;BME280;49654;51.142;14.924;2022-10-03T12:17:09;99690.03;;;15.97;56.59
63500;BME280;49654;51.142;14.924;2022-10-03T12:19:47;99683.91;;;15.49;57.19
63500;BME280;49654;51.142;14.924;2022-10-03T12:22:27;99702.09;;;15.22;58.17
63500;BME280;49654;51.142;14.924;2022-10-03T12:25:01;99690.72;;;15.09;58.49
63500;BME280;49654;51.142;14.924;2022-10-03T12:27:38;99661.31;;;15.07;59.11
63500;BME280;49654;51.142;14.924;2022-10-03T12:30:13;99679.69;;;15.48;57.46
63500;BME280;49654;51.142;14.924;2022-10-03T12:32:50;99689.56;;;15.81;57.84
63500;BME280;49654;51.142;14.924;2022-10-03T12:35:34;99665.00;;;15.53;57.83
63500;BME280;49654;51.142;14.924;2022-10-03T12:38:24;99703.81;;;15.78;57.63
63500;BME280;49654;51.142;14.924;2022-10-03T12:41:04;99683.00;;;15.63;57.34
63500;BME280;49654;51.142;14.924;2022-10-03T12:43:44;99703.44;;;15.81;56.93
63500;BME280;49654;51.142;14.924;2022-10-03T12:46:23;99709.06;;;15.78;58.52
63500;BME280;49654;51.142;14.924;2022-10-03T12:49:00;99704.69;;;15.57;57.41
63500;BME280;49654;51.142;14.924;2022-10-03T12:51:40;99701.22;;;15.50;57.40
63500;BME280;49654;51.142;14.924;2022-10-03T12:54:21;99707.94;;;15.59;58.10
63500;BME280;49654;51.142;14.924;2022-10-03T12:57:07;99711.06;;;16.24;56.59
63500;BME280;49654;51.142;14.924;2022-10-03T12:59:41;99693.78;;;17.02;55.07
63500;BME280;49654;51.142;14.924;2022-10-03T13:02:21;99695.13;;;18.10;51.59
63500;BME280;49654;51.142;14.924;2022-10-03T13:05:24;99684.28;;;17.35;51.97
63500;BME280;49654;51.142;14.924;2022-10-03T13:07:57;99687.06;;;17.40;52.69
63500;BME280;49654;51.142;14.924;2022-10-03T13:10:36;99692.00;;;16.96;52.21
63500;BME280;49654;51.142;14.924;2022-10-03T13:13:20;99687.91;;;16.61;54.31
63500;BME280;49654;51.142;14.924;2022-10-03T13:16:17;99693.31;;;16.19;55.49
63500;BME280;49654;51.142;14.924;2022-10-03T13:18:51;99697.38;;;16.48;54.60
63500;BME280;49654;51.142;14.924;2022-10-03T13:21:23;99690.94;;;16.64;54.06
63500;BME280;49654;51.142;14.924;2022-10-03T13:23:55;99678.31;;;18.99;48.80
63500;BME280;49654;51.142;14.924;2022-10-03T13:26:31;99688.75;;;18.24;49.34
63500;BME280;49654;51.142;14.924;2022-10-03T13:29:13;99693.34;;;17.25;51.75
63500;BME280;49654;51.142;14.924;2022-10-03T13:31:56;99691.34;;;16.68;53.34
63500;BME280;49654;51.142;14.924;2022-10-03T13:34:28;99667.53;;;16.56;53.08
63500;BME280;49654;51.142;14.924;2022-10-03T13:36:59;99678.66;;;16.91;52.71
63500;BME280;49654;51.142;14.924;2022-10-03T13:39:39;99677.41;;;17.92;51.63
63500;BME280;49654;51.142;14.924;2022-10-03T13:42:15;99673.59;;;18.83;47.90
63500;BME280;49654;51.142;14.924;2022-10-03T13:44:49;99682.19;;;18.40;48.48
63500;BME280;49654;51.142;14.924;2022-10-03T13:47:26;99678.06;;;17.81;50.21
63500;BME280;49654;51.142;14.924;2022-10-03T13:49:57;99668.75;;;17.91;50.29
63500;BME280;49654;51.142;14.924;2022-10-03T13:52:34;99672.75;;;17.94;51.25
63500;BME280;49654;51.142;14.924;2022-10-03T13:55:12;99677.38;;;17.98;50.97
63500;BME280;49654;51.142;14.924;2022-10-03T13:57:44;99668.03;;;22.74;41.79
63500;BME280;49654;51.142;14.924;2022-10-03T14:00:18;99661.84;;;22.69;39.41
63500;BME280;49654;51.142;14.924;2022-10-03T14:03:11;99679.41;;;21.44;41.64
63500;BME280;49654;51.142;14.924;2022-10-03T14:06:05;99655.66;;;19.90;43.21
63500;BME280;49654;51.142;14.924;2022-10-03T14:08:50;99680.97;;;18.42;47.05
63500;BME280;49654;51.142;14.924;2022-10-03T14:11:23;99687.97;;;17.72;50.24
63500;BME280;49654;51.142;14.924;2022-10-03T14:14:07;99674.63;;;17.02;52.09
63500;BME280;49654;51.142;14.924;2022-10-03T14:16:39;99675.84;;;16.80;52.39
63500;BME280;49654;51.142;14.924;2022-10-03T14:19:16;99686.09;;;16.55;53.60
63500;BME280;49654;51.142;14.924;2022-10-03T14:21:57;99678.13;;;17.54;53.41
63500;BME280;49654;51.142;14.924;2022-10-03T14:24:46;99683.66;;;18.61;48.79
63500;BME280;49654;51.142;14.924;2022-10-03T14:27:40;99680.94;;;18.11;50.83
63500;BME280;49654;51.142;14.924;2022-10-03T14:30:11;99688.03;;;17.59;52.63
63500;BME280;49654;51.142;14.924;2022-10-03T14:32:49;99687.59;;;18.51;51.59
63500;BME280;49654;51.142;14.924;2022-10-03T14:35:39;99686.63;;;20.24;46.09
63500;BME280;49654;51.142;14.924;2022-10-03T14:38:33;99682.44;;;18.63;49.22
63500;BME280;49654;51.142;14.924;2022-10-03T14:41:36;99688.50;;;16.69;54.92
63500;BME280;49654;51.142;14.924;2022-10-03T14:44:07;99709.63;;;16.21;57.67
63500;BME280;49654;51.142;14.924;2022-10-03T14:46:41;99717.94;;;15.77;59.98
63500;BME280;49654;51.142;14.924;2022-10-03T14:49:16;99704.47;;;15.52;61.06
63500;BME280;49654;51.142;14.924;2022-10-03T14:51:50;99703.22;;;15.13;62.46
63500;BME280;49654;51.142;14.924;2022-10-03T14:54:22;99695.97;;;15.09;62.31
63500;BME280;49654;51.142;14.924;2022-10-03T14:56:52;99694.69;;;15.33;62.74
63500;BME280;49654;51.142;14.924;2022-10-03T14:59:25;99707.16;;;15.31;63.27
63500;BME280;49654;51.142;14.924;2022-10-03T15:01:56;99698.31;;;15.32;63.40
63500;BME280;49654;51.142;14.924;2022-10-03T15:04:29;99704.59;;;15.09;62.99
63500;BME280;49654;51.142;14.924;2022-10-03T15:06:59;99683.97;;;14.93;63.91
63500;BME280;49654;51.142;14.924;2022-10-03T15:09:31;99703.66;;;15.17;64.62
63500;BME280;49654;51.142;14.924;2022-10-03T15:12:04;99700.38;;;15.08;63.74
63500;BME280;49654;51.142;14.924;2022-10-03T15:14:36;99707.13;;;14.96;64.36
63500;BME280;49654;51.142;14.924;2022-10-03T15:17:15;99706.75;;;14.99;64.78
63500;BME280;49654;51.142;14.924;2022-10-03T15:19:50;99712.94;;;14.91;65.51
63500;BME280;49654;51.142;14.924;2022-10-03T15:22:31;99718.03;;;14.99;65.82
63500;BME280;49654;51.142;14.924;2022-10-03T15:25:05;99702.09;;;14.73;66.32
63500;BME280;49654;51.142;14.924;2022-10-03T15:27:34;99679.97;;;14.69;66.83
63500;BME280;49654;51.142;14.924;2022-10-03T15:30:06;99717.41;;;14.76;67.28
63500;BME280;49654;51.142;14.924;2022-10-03T15:32:35;99713.38;;;14.73;67.88
63500;BME280;49654;51.142;14.924;2022-10-03T15:35:06;99703.53;;;14.75;67.70
63500;BME280;49654;51.142;14.924;2022-10-03T15:37:35;99702.72;;;14.75;67.96
63500;BME280;49654;51.142;14.924;2022-10-03T15:40:08;99708.00;;;14.82;68.21